createdAt,value
2023-03-20T00:00:52.351Z,99.99
2023-03-20T00:01:52.327Z,99.99
2023-03-20T00:02:52.293Z,99.99
2023-03-20T00:03:52.289Z,99.99
2023-03-20T00:04:52.317Z,99.99
2023-03-20T00:05:52.211Z,99.99
2023-03-20T00:06:52.185Z,99.99
2023-03-20T00:07:52.151Z,99.99
2023-03-20T00:08:52.124Z,99.99
2023-03-20T00:09:52.094Z,99.96
2023-03-20T00:10:52.066Z,99.99
2023-03-20T00:11:52.038Z,99.99
2023-03-20T00:12:52.014Z,99.96
2023-03-20T00:13:51.987Z,99.49
2023-03-20T00:14:51.953Z,99.60
2023-03-20T00:15:52.014Z,99.99
2023-03-20T00:16:51.909Z,99.99
2023-03-20T00:17:51.867Z,99.99
2023-03-20T00:18:51.853Z,99.99
2023-03-20T00:19:51.823Z,99.99
2023-03-20T00:20:51.811Z,99.99
2023-03-20T00:21:51.756Z,99.99
2023-03-20T00:22:51.736Z,99.99
2023-03-20T00:23:51.698Z,99.99
2023-03-20T00:24:51.670Z,99.99
2023-03-20T00:25:51.641Z,99.99
2023-03-20T00:26:51.649Z,99.99
2023-03-20T00:27:51.589Z,99.99
2023-03-20T00:28:51.563Z,99.99
2023-03-20T00:29:51.529Z,99.55
2023-03-20T00:30:51.504Z,99.55
2023-03-20T00:31:51.610Z,99.65
2023-03-20T00:32:51.470Z,99.91
2023-03-20T00:33:51.414Z,99.96
2023-03-20T00:34:51.399Z,99.76
2023-03-20T00:35:51.386Z,99.55
2023-03-20T00:36:51.376Z,99.65
2023-03-20T00:37:51.304Z,99.96
2023-03-20T00:38:51.276Z,99.76
2023-03-20T00:39:51.244Z,99.65
2023-03-20T00:40:51.218Z,99.34
2023-03-20T00:41:51.189Z,99.60
2023-03-20T00:42:51.162Z,99.65
2023-03-20T00:43:51.134Z,99.86
2023-03-20T00:44:51.129Z,99.76
2023-03-20T00:45:51.077Z,99.44
2023-03-20T00:46:51.209Z,99.44
2023-03-20T00:47:51.041Z,99.65
2023-03-20T00:48:50.992Z,99.65
2023-03-20T00:49:50.962Z,99.65
2023-03-20T00:50:50.935Z,99.76
2023-03-20T00:51:50.907Z,99.99
2023-03-20T00:52:50.902Z,99.99
2023-03-20T00:53:50.859Z,99.99
2023-03-20T00:54:50.859Z,99.65
2023-03-20T00:55:50.804Z,98.62
2023-03-20T00:56:50.765Z,99.04
2023-03-20T00:57:50.737Z,98.72
2023-03-20T00:58:50.708Z,98.88
2023-03-20T00:59:50.680Z,99.80
2023-03-20T01:00:50.669Z,99.14
2023-03-20T01:01:50.678Z,98.77
2023-03-20T01:02:50.596Z,99.14
2023-03-20T01:03:50.569Z,99.80
2023-03-20T01:04:50.562Z,99.96
2023-03-20T01:05:50.517Z,99.96
2023-03-20T01:06:50.485Z,99.49
2023-03-20T01:07:50.456Z,99.55
2023-03-20T01:08:50.455Z,99.76
2023-03-20T01:09:50.397Z,99.55
2023-03-20T01:10:50.378Z,99.65
2023-03-20T01:11:51.101Z,99.65
2023-03-20T01:12:50.313Z,99.65
2023-03-20T01:13:50.282Z,99.34
2023-03-20T01:14:50.253Z,99.14
2023-03-20T01:15:50.231Z,99.65
2023-03-20T01:16:50.204Z,99.76
2023-03-20T01:17:50.167Z,99.55
2023-03-20T01:18:50.144Z,99.99
2023-03-20T01:19:50.115Z,99.96
2023-03-20T01:20:50.090Z,99.34
2023-03-20T01:21:50.058Z,99.76
2023-03-20T01:22:50.032Z,99.55
2023-03-20T01:23:49.997Z,99.76
2023-03-20T01:24:49.991Z,99.99
2023-03-20T01:25:49.940Z,99.34
2023-03-20T01:26:49.913Z,99.76
2023-03-20T01:27:49.884Z,99.86
2023-03-20T01:28:49.857Z,99.86
2023-03-20T01:29:49.837Z,99.86
2023-03-20T01:30:49.799Z,99.76
2023-03-20T01:31:49.898Z,99.76
2023-03-20T01:32:49.818Z,99.34
2023-03-20T01:33:49.715Z,98.36
2023-03-20T01:34:49.692Z,99.80
2023-03-20T01:35:49.750Z,99.90
2023-03-20T01:36:49.633Z,99.39
2023-03-20T01:37:49.626Z,99.99
2023-03-20T01:38:49.571Z,99.49
2023-03-20T01:39:49.557Z,99.90
2023-03-20T01:40:49.535Z,99.60
2023-03-20T01:41:49.490Z,99.90
2023-03-20T01:42:49.459Z,99.24
2023-03-20T01:43:49.434Z,99.99
2023-03-20T01:44:49.403Z,99.76
2023-03-20T01:45:49.416Z,99.90
2023-03-20T01:46:49.346Z,99.65
2023-03-20T01:47:49.319Z,99.90
2023-03-20T01:48:49.294Z,99.99
2023-03-20T01:49:49.261Z,99.86
2023-03-20T01:50:49.233Z,99.60
2023-03-20T01:51:49.214Z,99.39
2023-03-20T01:52:49.180Z,99.76
2023-03-20T01:53:49.148Z,99.99
2023-03-20T01:54:49.121Z,99.70
2023-03-20T01:55:49.092Z,99.86
2023-03-20T01:56:49.084Z,99.76
2023-03-20T01:57:49.035Z,99.65
2023-03-20T01:58:49.006Z,99.65
2023-03-20T01:59:48.978Z,99.86
2023-03-20T02:00:49.066Z,99.86
2023-03-20T02:01:48.923Z,98.83
2023-03-20T02:02:48.891Z,98.83
2023-03-20T02:03:48.867Z,98.62
2023-03-20T02:04:48.892Z,97.90
2023-03-20T02:05:48.812Z,97.75
2023-03-20T02:06:48.778Z,98.58
2023-03-20T02:07:48.748Z,98.68
2023-03-20T02:08:48.752Z,98.62
2023-03-20T02:09:48.710Z,98.79
2023-03-20T02:10:48.670Z,98.68
2023-03-20T02:11:48.634Z,98.88
2023-03-20T02:12:48.641Z,98.27
2023-03-20T02:13:48.580Z,98.58
2023-03-20T02:14:48.550Z,98.88
2023-03-20T02:15:48.529Z,98.99
2023-03-20T02:16:48.528Z,98.88
2023-03-20T02:17:48.465Z,98.58
2023-03-20T02:18:48.438Z,98.68
2023-03-20T02:19:48.410Z,99.09
2023-03-20T02:20:48.395Z,98.16
2023-03-20T02:21:48.365Z,98.16
2023-03-20T02:22:48.323Z,98.68
2023-03-20T02:23:48.293Z,98.88
2023-03-20T02:24:48.268Z,98.11
2023-03-20T02:25:48.239Z,99.09
2023-03-20T02:26:48.220Z,98.83
2023-03-20T02:27:48.180Z,98.79
2023-03-20T02:28:48.178Z,99.34
2023-03-20T02:29:48.128Z,98.72
2023-03-20T02:30:48.165Z,98.52
2023-03-20T02:31:48.069Z,98.21
2023-03-20T02:32:48.097Z,99.04
2023-03-20T02:33:48.013Z,98.42
2023-03-20T02:34:47.982Z,98.42
2023-03-20T02:35:47.975Z,98.72
2023-03-20T02:36:47.927Z,98.52
2023-03-20T02:37:47.901Z,98.21
2023-03-20T02:38:47.869Z,99.24
2023-03-20T02:39:47.839Z,99.04
2023-03-20T02:40:47.822Z,98.83
2023-03-20T02:41:47.831Z,99.04
2023-03-20T02:42:47.756Z,98.93
2023-03-20T02:43:47.726Z,97.80
2023-03-20T02:44:47.741Z,99.18
2023-03-20T02:45:47.738Z,98.21
2023-03-20T02:46:47.644Z,98.15
2023-03-20T02:47:47.612Z,99.08
2023-03-20T02:48:47.586Z,98.67
2023-03-20T02:49:47.563Z,98.88
2023-03-20T02:50:47.533Z,97.90
2023-03-20T02:51:47.501Z,99.08
2023-03-20T02:52:47.474Z,98.88
2023-03-20T02:53:47.441Z,98.77
2023-03-20T02:54:47.414Z,98.97
2023-03-20T02:55:47.393Z,98.72
2023-03-20T02:56:47.365Z,98.83
2023-03-20T02:57:47.328Z,98.77
2023-03-20T02:58:47.299Z,98.77
2023-03-20T02:59:47.272Z,98.77
2023-03-20T03:00:47.264Z,98.46
2023-03-20T03:01:47.288Z,98.57
2023-03-20T03:02:47.252Z,98.57
2023-03-20T03:03:47.160Z,98.88
2023-03-20T03:04:47.133Z,98.77
2023-03-20T03:05:47.101Z,99.08
2023-03-20T03:06:47.072Z,98.88
2023-03-20T03:07:47.090Z,98.67
2023-03-20T03:08:47.015Z,99.08
2023-03-20T03:09:46.989Z,98.77
2023-03-20T03:10:46.958Z,98.67
2023-03-20T03:11:46.926Z,98.88
2023-03-20T03:12:46.904Z,99.18
2023-03-20T03:13:46.872Z,99.02
2023-03-20T03:14:46.842Z,99.23
2023-03-20T03:15:46.852Z,99.13
2023-03-20T03:16:46.806Z,98.92
2023-03-20T03:17:46.758Z,99.43
2023-03-20T03:18:46.737Z,99.74
2023-03-20T03:19:46.716Z,99.74
2023-03-20T03:20:47.830Z,99.99
2023-03-20T03:21:46.641Z,99.74
2023-03-20T03:22:46.612Z,99.74
2023-03-20T03:23:46.585Z,99.85
2023-03-20T03:24:46.556Z,99.43
2023-03-20T03:25:46.536Z,99.74
2023-03-20T03:26:46.499Z,99.74
2023-03-20T03:27:46.469Z,99.74
2023-03-20T03:28:46.441Z,99.99
2023-03-20T03:29:46.413Z,99.99
2023-03-20T03:30:46.384Z,99.99
2023-03-20T03:31:46.356Z,99.99
2023-03-20T03:32:46.400Z,99.85
2023-03-20T03:33:46.308Z,99.95
2023-03-20T03:34:46.270Z,99.39
2023-03-20T03:35:46.287Z,99.99
2023-03-20T03:36:46.213Z,99.99
2023-03-20T03:37:46.183Z,99.74
2023-03-20T03:38:46.155Z,99.90
2023-03-20T03:39:46.124Z,99.90
2023-03-20T03:40:46.101Z,99.80
2023-03-20T03:41:46.067Z,99.90
2023-03-20T03:42:46.054Z,99.18
2023-03-20T03:43:46.016Z,98.88
2023-03-20T03:44:45.984Z,98.88
2023-03-20T03:45:45.961Z,98.15
2023-03-20T03:46:45.952Z,97.85
2023-03-20T03:47:45.906Z,98.05
2023-03-20T03:48:45.889Z,97.95
2023-03-20T03:49:45.843Z,97.95
2023-03-20T03:50:45.811Z,98.05
2023-03-20T03:51:45.785Z,98.05
2023-03-20T03:52:45.775Z,97.95
2023-03-20T03:53:45.727Z,98.32
2023-03-20T03:54:45.695Z,97.85
2023-03-20T03:55:45.691Z,97.90
2023-03-20T03:56:45.641Z,99.08
2023-03-20T03:57:45.613Z,99.08
2023-03-20T03:58:45.581Z,98.83
2023-03-20T03:59:45.558Z,98.72
2023-03-20T04:00:45.525Z,98.72
2023-03-20T04:01:45.566Z,98.88
2023-03-20T04:02:45.476Z,99.04
2023-03-20T04:03:45.450Z,98.46
2023-03-20T04:04:45.487Z,98.88
2023-03-20T04:05:45.388Z,98.57
2023-03-20T04:06:45.359Z,98.32
2023-03-20T04:07:45.329Z,99.08
2023-03-20T04:08:45.298Z,99.18
2023-03-20T04:09:45.272Z,98.97
2023-03-20T04:10:45.249Z,98.72
2023-03-20T04:11:45.216Z,99.08
2023-03-20T04:12:45.194Z,97.13
2023-03-20T04:13:45.213Z,97.49
2023-03-20T04:14:45.126Z,97.80
2023-03-20T04:15:45.105Z,98.36
2023-03-20T04:16:45.071Z,99.08
2023-03-20T04:17:45.049Z,97.90
2023-03-20T04:18:45.019Z,98.15
2023-03-20T04:19:44.987Z,97.80
2023-03-20T04:20:44.976Z,97.85
2023-03-20T04:21:44.928Z,98.15
2023-03-20T04:22:44.902Z,97.64
2023-03-20T04:23:44.871Z,98.05
2023-03-20T04:24:44.845Z,97.95
2023-03-20T04:25:44.827Z,98.05
2023-03-20T04:26:44.784Z,97.95
2023-03-20T04:27:44.755Z,98.15
2023-03-20T04:28:44.733Z,98.05
2023-03-20T04:29:44.698Z,97.85
2023-03-20T04:30:44.669Z,97.95
2023-03-20T04:31:44.696Z,97.64
2023-03-20T04:32:44.644Z,97.85
2023-03-20T04:33:44.585Z,97.99
2023-03-20T04:34:44.552Z,98.15
2023-03-20T04:35:44.585Z,97.43
2023-03-20T04:36:44.521Z,97.43
2023-03-20T04:37:44.472Z,98.15
2023-03-20T04:38:44.441Z,97.85
2023-03-20T04:39:44.428Z,98.05
2023-03-20T04:40:44.385Z,98.25
2023-03-20T04:41:44.351Z,98.77
2023-03-20T04:42:44.324Z,98.71
2023-03-20T04:43:44.295Z,98.41
2023-03-20T04:44:44.263Z,97.99
2023-03-20T04:45:44.316Z,98.30
2023-03-20T04:46:44.205Z,98.92
2023-03-20T04:47:44.179Z,98.86
2023-03-20T04:48:44.148Z,98.66
2023-03-20T04:49:44.120Z,99.99
2023-03-20T04:50:44.088Z,99.99
2023-03-20T04:51:44.060Z,99.99
2023-03-20T04:52:44.053Z,99.79
2023-03-20T04:53:44.002Z,99.85
2023-03-20T04:54:43.974Z,99.79
2023-03-20T04:55:43.945Z,99.58
2023-03-20T04:56:43.914Z,99.99
2023-03-20T04:57:43.895Z,99.99
2023-03-20T04:58:43.855Z,99.69
2023-03-20T04:59:43.827Z,99.99
2023-03-20T05:00:43.822Z,99.99
2023-03-20T05:01:43.785Z,99.99
2023-03-20T05:02:43.740Z,99.99
2023-03-20T05:03:43.762Z,99.99
2023-03-20T05:04:43.681Z,99.38
2023-03-20T05:05:43.654Z,99.90
2023-03-20T05:06:43.628Z,99.38
2023-03-20T05:07:43.595Z,99.22
2023-03-20T05:08:43.592Z,99.11
2023-03-20T05:09:43.542Z,99.26
2023-03-20T05:10:43.509Z,99.06
2023-03-20T05:11:43.475Z,99.37
2023-03-20T05:12:43.446Z,99.47
2023-03-20T05:13:43.518Z,99.26
2023-03-20T05:14:43.412Z,99.41
2023-03-20T05:15:43.363Z,99.21
2023-03-20T05:16:43.450Z,98.90
2023-03-20T05:17:43.298Z,98.79
2023-03-20T05:18:43.266Z,99.35
2023-03-20T05:19:43.244Z,98.90
2023-03-20T05:20:43.222Z,99.66
2023-03-20T05:21:43.186Z,99.99
2023-03-20T05:22:43.149Z,99.98
2023-03-20T05:23:43.137Z,99.99
2023-03-20T05:24:43.114Z,99.99
2023-03-20T05:25:43.063Z,99.66
2023-03-20T05:26:43.048Z,99.99
2023-03-20T05:27:43.009Z,99.99
2023-03-20T05:28:42.979Z,99.92
2023-03-20T05:29:42.950Z,99.92
2023-03-20T05:30:42.975Z,99.99
2023-03-20T05:31:42.887Z,99.99
2023-03-20T05:32:42.870Z,99.99
2023-03-20T05:33:42.830Z,99.99
2023-03-20T05:34:42.830Z,99.99
2023-03-20T05:35:42.785Z,99.99
2023-03-20T05:36:42.753Z,99.99
2023-03-20T05:37:42.714Z,99.99
2023-03-20T05:38:42.688Z,99.99
2023-03-20T05:39:42.653Z,99.99
2023-03-20T05:40:42.649Z,99.99
2023-03-20T05:41:45.693Z,99.99
2023-03-20T05:42:42.563Z,99.99
2023-03-20T05:43:42.535Z,99.99
2023-03-20T05:44:42.503Z,99.99
2023-03-20T05:45:42.476Z,99.99
2023-03-20T05:46:42.451Z,99.99
2023-03-20T05:47:42.422Z,99.99
2023-03-20T05:48:42.452Z,99.99
2023-03-20T05:49:42.361Z,99.99
2023-03-20T05:50:42.338Z,99.99
2023-03-20T05:51:42.301Z,99.99
2023-03-20T05:52:42.271Z,99.99
2023-03-20T05:53:42.242Z,99.99
2023-03-20T05:54:42.225Z,99.99
2023-03-20T05:55:42.188Z,99.99
2023-03-20T05:56:42.203Z,99.99
2023-03-20T05:57:42.126Z,99.99
2023-03-20T05:58:42.093Z,99.99
2023-03-20T05:59:42.067Z,99.99
2023-03-20T06:00:42.036Z,99.99
2023-03-20T06:01:42.012Z,99.99
2023-03-20T06:02:42.031Z,99.99
2023-03-20T06:03:42.014Z,99.99
2023-03-20T06:04:41.919Z,99.99
2023-03-20T06:05:41.891Z,99.99
2023-03-20T06:06:41.870Z,99.99
2023-03-20T06:07:41.837Z,99.99
2023-03-20T06:08:41.808Z,99.99
2023-03-20T06:09:41.775Z,99.99
2023-03-20T06:10:41.743Z,99.99
2023-03-20T06:11:41.716Z,99.99
2023-03-20T06:12:41.701Z,99.99
2023-03-20T06:13:41.657Z,99.99
2023-03-20T06:14:41.625Z,99.99
2023-03-20T06:15:41.617Z,99.99
2023-03-20T06:16:41.582Z,99.99
2023-03-20T06:17:41.540Z,99.99
2023-03-20T06:18:41.510Z,99.99
2023-03-20T06:19:41.483Z,99.99
2023-03-20T06:20:41.452Z,99.99
2023-03-20T06:21:41.423Z,99.99
2023-03-20T06:22:41.390Z,99.99
2023-03-20T06:23:41.362Z,99.99
2023-03-20T06:24:41.333Z,99.99
2023-03-20T06:25:41.309Z,99.99
2023-03-20T06:26:41.281Z,99.99
2023-03-20T06:27:41.245Z,99.99
2023-03-20T06:28:41.237Z,99.99
2023-03-20T06:29:41.188Z,99.99
2023-03-20T06:30:41.161Z,99.99
2023-03-20T06:31:41.128Z,99.99
2023-03-20T06:32:41.127Z,99.99
2023-03-20T06:33:41.072Z,99.99
2023-03-20T06:34:41.046Z,99.99
2023-03-20T06:35:41.056Z,99.99
2023-03-20T06:36:42.787Z,99.99
2023-03-20T06:37:40.951Z,99.99
2023-03-20T06:38:40.921Z,99.99
2023-03-20T06:39:40.898Z,99.99
2023-03-20T06:40:40.863Z,99.99
2023-03-20T06:41:40.832Z,99.99
2023-03-20T06:42:40.802Z,99.99
2023-03-20T06:43:40.776Z,99.99
2023-03-20T06:44:40.762Z,99.99
2023-03-20T06:45:40.721Z,99.99
2023-03-20T06:46:40.790Z,99.99
2023-03-20T06:47:40.657Z,99.99
2023-03-20T06:48:40.627Z,99.99
2023-03-20T06:49:40.609Z,99.99
2023-03-20T06:50:40.569Z,99.99
2023-03-20T06:51:40.557Z,99.99
2023-03-20T06:52:40.527Z,99.99
2023-03-20T06:53:40.482Z,99.99
2023-03-20T06:54:40.453Z,99.99
2023-03-20T06:55:40.432Z,99.99
2023-03-20T06:56:40.394Z,99.99
2023-03-20T06:57:40.372Z,98.97
2023-03-20T06:58:40.335Z,98.24
2023-03-20T06:59:40.310Z,97.06
2023-03-20T07:00:40.398Z,97.17
2023-03-20T07:01:40.256Z,97.58
2023-03-20T07:02:40.219Z,97.38
2023-03-20T07:03:40.195Z,95.73
2023-03-20T07:04:40.185Z,95.83
2023-03-20T07:05:40.146Z,95.93
2023-03-20T07:06:40.107Z,96.41
2023-03-20T07:07:40.083Z,95.48
2023-03-20T07:08:40.051Z,95.89
2023-03-20T07:09:40.024Z,95.99
2023-03-20T07:10:39.993Z,94.85
2023-03-20T07:11:39.974Z,94.13
2023-03-20T07:12:39.934Z,94.24
2023-03-20T07:13:39.908Z,93.21
2023-03-20T07:14:39.876Z,94.55
2023-03-20T07:15:43.846Z,94.65
2023-03-20T07:16:39.891Z,94.76
2023-03-20T07:17:39.816Z,94.81
2023-03-20T07:18:39.762Z,94.09
2023-03-20T07:19:39.736Z,94.60
2023-03-20T07:20:39.704Z,93.58
2023-03-20T07:21:39.677Z,93.84
2023-03-20T07:22:39.646Z,94.46
2023-03-20T07:23:39.617Z,94.46
2023-03-20T07:24:39.592Z,94.11
2023-03-20T07:25:42.891Z,94.21
2023-03-20T07:26:39.531Z,94.01
2023-03-20T07:27:39.503Z,93.70
2023-03-20T07:28:39.511Z,92.93
2023-03-20T07:29:39.446Z,91.60
2023-03-20T07:30:39.414Z,92.21
2023-03-20T07:31:39.437Z,92.01
2023-03-20T07:32:39.496Z,90.47
2023-03-20T07:33:39.331Z,89.75
2023-03-20T07:34:39.313Z,90.06
2023-03-20T07:35:39.607Z,90.32
2023-03-20T07:36:39.250Z,90.12
2023-03-20T07:37:39.215Z,90.22
2023-03-20T07:38:39.187Z,89.97
2023-03-20T07:39:39.159Z,87.40
2023-03-20T07:40:39.128Z,87.82
2023-03-20T07:41:39.103Z,86.58
2023-03-20T07:42:39.069Z,87.13
2023-03-20T07:43:39.041Z,88.06
2023-03-20T07:44:39.012Z,88.59
2023-03-20T07:45:39.331Z,87.12
2023-03-20T07:46:38.955Z,87.08
2023-03-20T07:47:38.995Z,84.72
2023-03-20T07:48:39.052Z,86.30
2023-03-20T07:49:38.874Z,85.54
2023-03-20T07:50:38.842Z,86.25
2023-03-20T07:51:38.816Z,85.30
2023-03-20T07:52:38.786Z,86.01
2023-03-20T07:53:38.776Z,85.46
2023-03-20T07:54:38.735Z,85.91
2023-03-20T07:55:38.912Z,84.78
2023-03-20T07:56:38.673Z,85.80
2023-03-20T07:57:38.657Z,82.97
2023-03-20T07:58:38.619Z,83.83
2023-03-20T07:59:38.593Z,86.19
2023-03-20T08:00:38.565Z,85.62
2023-03-20T08:01:38.540Z,85.41
2023-03-20T08:02:38.547Z,84.08
2023-03-20T08:03:38.769Z,83.81
2023-03-20T08:04:38.479Z,84.16
2023-03-20T08:05:38.743Z,84.98
2023-03-20T08:06:38.398Z,83.44
2023-03-20T08:07:38.396Z,85.90
2023-03-20T08:08:38.350Z,83.64
2023-03-20T08:09:38.316Z,84.09
2023-03-20T08:10:38.289Z,83.78
2023-03-20T08:11:38.268Z,85.43
2023-03-20T08:12:38.262Z,84.81
2023-03-20T08:13:38.207Z,85.53
2023-03-20T08:14:38.180Z,84.30
2023-03-20T08:15:38.812Z,84.77
2023-03-20T08:16:38.194Z,85.39
2023-03-20T08:17:38.102Z,84.26
2023-03-20T08:18:38.219Z,84.12
2023-03-20T08:19:38.039Z,84.84
2023-03-20T08:20:38.064Z,84.84
2023-03-20T08:21:37.992Z,82.95
2023-03-20T08:22:37.962Z,83.26
2023-03-20T08:23:37.950Z,82.03
2023-03-20T08:24:37.913Z,83.32
2023-03-20T08:25:38.227Z,80.76
2023-03-20T08:26:37.848Z,80.96
2023-03-20T08:27:37.816Z,80.55
2023-03-20T08:28:47.664Z,79.52
2023-03-20T08:29:37.764Z,80.65
2023-03-20T08:30:37.744Z,80.45
2023-03-20T08:31:37.705Z,81.71
2023-03-20T08:32:37.713Z,82.03
2023-03-20T08:33:37.651Z,83.46
2023-03-20T08:34:37.624Z,82.43
2023-03-20T08:35:37.649Z,82.70
2023-03-20T08:36:37.587Z,83.32
2023-03-20T08:37:37.538Z,80.72
2023-03-20T08:38:37.514Z,80.51
2023-03-20T08:39:37.549Z,80.31
2023-03-20T08:40:37.457Z,79.49
2023-03-20T08:41:37.428Z,79.08
2023-03-20T08:42:37.401Z,79.90
2023-03-20T08:43:37.385Z,78.83
2023-03-20T08:44:37.508Z,77.91
2023-03-20T08:45:37.644Z,78.90
2023-03-20T08:46:37.379Z,77.06
2023-03-20T08:47:39.592Z,76.14
2023-03-20T08:48:37.233Z,77.87
2023-03-20T08:49:37.215Z,77.73
2023-03-20T08:50:37.179Z,75.31
2023-03-20T08:51:37.147Z,76.03
2023-03-20T08:52:37.151Z,75.52
2023-03-20T08:53:37.093Z,76.10
2023-03-20T08:54:37.068Z,75.96
2023-03-20T08:55:37.471Z,75.86
2023-03-20T08:56:37.011Z,76.13
2023-03-20T08:57:36.986Z,77.46
2023-03-20T08:58:36.956Z,76.64
2023-03-20T08:59:36.933Z,73.47
2023-03-20T09:00:36.900Z,74.73
2023-03-20T09:01:48.849Z,77.70
2023-03-20T09:02:37.085Z,77.19
2023-03-20T09:03:36.864Z,76.75
2023-03-20T09:04:36.802Z,75.93
2023-03-20T09:05:37.160Z,73.50
2023-03-20T09:06:36.750Z,74.43
2023-03-20T09:07:36.718Z,73.81
2023-03-20T09:08:36.717Z,73.47
2023-03-20T09:09:36.657Z,74.73
2023-03-20T09:10:36.638Z,75.31
2023-03-20T09:11:36.623Z,75.27
2023-03-20T09:12:36.577Z,74.26
2023-03-20T09:13:36.575Z,72.31
2023-03-20T09:14:36.553Z,73.23
2023-03-20T09:15:36.884Z,73.50
2023-03-20T09:16:36.532Z,74.02
2023-03-20T09:17:36.450Z,71.49
2023-03-20T09:18:36.415Z,73.10
2023-03-20T09:19:36.390Z,71.80
2023-03-20T09:20:36.587Z,75.17
2023-03-20T09:21:36.356Z,77.01
2023-03-20T09:22:36.345Z,76.91
2023-03-20T09:23:36.313Z,74.26
2023-03-20T09:24:36.415Z,74.05
2023-03-20T09:25:36.495Z,72.00
2023-03-20T09:26:36.206Z,73.03
2023-03-20T09:27:36.189Z,72.17
2023-03-20T09:28:36.153Z,73.88
2023-03-20T09:29:36.134Z,74.49
2023-03-20T09:30:36.467Z,69.93
2023-03-20T09:31:36.184Z,71.15
2023-03-20T09:32:36.172Z,73.10
2023-03-20T09:33:36.026Z,71.56
2023-03-20T09:34:35.998Z,70.06
2023-03-20T09:35:35.993Z,69.99
2023-03-20T09:36:35.948Z,70.81
2023-03-20T09:37:35.921Z,69.82
2023-03-20T09:38:35.889Z,69.31
2023-03-20T09:39:35.887Z,69.03
2023-03-20T09:40:36.194Z,70.03
2023-03-20T09:41:45.812Z,69.34
2023-03-20T09:42:35.791Z,70.26
2023-03-20T09:43:35.765Z,73.23
2023-03-20T09:44:35.751Z,71.15
2023-03-20T09:45:35.709Z,72.45
2023-03-20T09:46:35.776Z,72.65
2023-03-20T09:47:35.656Z,70.78
2023-03-20T09:48:35.635Z,69.58
2023-03-20T09:49:35.601Z,70.26
2023-03-20T09:50:35.830Z,70.67
2023-03-20T09:51:35.555Z,69.82
2023-03-20T09:52:35.521Z,69.82
2023-03-20T09:53:35.495Z,70.84
2023-03-20T09:54:50.798Z,67.47
2023-03-20T09:55:35.919Z,68.29
2023-03-20T09:56:35.440Z,69.82
2023-03-20T09:57:35.389Z,69.93
2023-03-20T09:58:35.361Z,69.62
2023-03-20T09:59:35.336Z,67.78
2023-03-20T10:00:35.689Z,68.87
2023-03-20T10:01:37.090Z,67.47
2023-03-20T10:02:35.258Z,68.80
2023-03-20T10:03:35.241Z,69.18
2023-03-20T10:04:35.248Z,66.83
2023-03-20T10:05:35.480Z,63.73
2023-03-20T10:06:35.157Z,64.96
2023-03-20T10:07:35.124Z,65.34
2023-03-20T10:08:35.105Z,65.84
2023-03-20T10:09:35.076Z,67.38
2023-03-20T10:10:35.406Z,68.37
2023-03-20T10:11:35.019Z,66.33
2023-03-20T10:12:35.016Z,67.72
2023-03-20T10:13:34.972Z,66.60
2023-03-20T10:14:34.946Z,66.91
2023-03-20T10:15:34.924Z,68.20
2023-03-20T10:16:34.932Z,68.27
2023-03-20T10:17:34.867Z,67.18
2023-03-20T10:18:34.846Z,69.73
2023-03-20T10:19:34.813Z,66.74
2023-03-20T10:20:35.332Z,65.89
2023-03-20T10:21:34.763Z,64.50
2023-03-20T10:22:34.740Z,64.26
2023-03-20T10:23:34.719Z,66.50
2023-03-20T10:24:34.687Z,66.99
2023-03-20T10:25:34.662Z,63.79
2023-03-20T10:26:34.641Z,64.94
2023-03-20T10:27:34.634Z,63.51
2023-03-20T10:28:34.605Z,66.16
2023-03-20T10:29:34.559Z,66.50
2023-03-20T10:30:34.744Z,66.71
2023-03-20T10:31:34.598Z,63.45
2023-03-20T10:32:34.513Z,63.96
2023-03-20T10:33:34.460Z,62.63
2023-03-20T10:34:34.436Z,61.34
2023-03-20T10:35:34.451Z,62.49
2023-03-20T10:36:34.386Z,61.68
2023-03-20T10:37:34.360Z,62.62
2023-03-20T10:38:34.334Z,65.07
2023-03-20T10:39:34.312Z,64.46
2023-03-20T10:40:34.571Z,62.96
2023-03-20T10:41:34.261Z,64.37
2023-03-20T10:42:34.236Z,65.70
2023-03-20T10:43:35.986Z,65.94
2023-03-20T10:44:34.220Z,66.96
2023-03-20T10:45:34.160Z,66.69
2023-03-20T10:46:34.282Z,66.86
2023-03-20T10:47:34.239Z,65.13
2023-03-20T10:48:34.084Z,65.03
2023-03-20T10:49:34.071Z,66.15
2023-03-20T10:50:34.310Z,65.23
2023-03-20T10:51:34.010Z,66.15
2023-03-20T10:52:33.990Z,64.83
2023-03-20T10:53:33.958Z,65.40
2023-03-20T10:54:33.932Z,66.11
2023-03-20T10:55:33.921Z,66.80
2023-03-20T10:56:33.882Z,65.16
2023-03-20T10:57:33.857Z,65.88
2023-03-20T10:58:33.839Z,65.30
2023-03-20T10:59:33.806Z,68.84
2023-03-20T11:00:34.273Z,68.50
2023-03-20T11:01:35.757Z,66.33
2023-03-20T11:02:33.732Z,63.95
2023-03-20T11:03:33.705Z,63.61
2023-03-20T11:04:33.712Z,63.18
2023-03-20T11:05:33.661Z,64.60
2023-03-20T11:06:33.631Z,64.17
2023-03-20T11:07:33.607Z,60.63
2023-03-20T11:08:33.581Z,59.05
2023-03-20T11:09:33.561Z,59.28
2023-03-20T11:10:33.773Z,61.35
2023-03-20T11:11:33.506Z,63.98
2023-03-20T11:12:33.482Z,62.62
2023-03-20T11:13:33.466Z,61.83
2023-03-20T11:14:33.438Z,63.64
2023-03-20T11:15:33.420Z,61.30
2023-03-20T11:16:33.470Z,61.30
2023-03-20T11:17:33.357Z,62.55
2023-03-20T11:18:33.344Z,63.23
2023-03-20T11:19:33.317Z,63.82
2023-03-20T11:20:33.613Z,63.82
2023-03-20T11:21:33.258Z,64.87
2023-03-20T11:22:33.234Z,61.34
2023-03-20T11:23:33.214Z,62.05
2023-03-20T11:24:33.188Z,61.41
2023-03-20T11:25:33.164Z,61.79
2023-03-20T11:26:33.135Z,61.69
2023-03-20T11:27:33.115Z,60.73
2023-03-20T11:28:33.114Z,61.50
2023-03-20T11:29:33.061Z,61.63
2023-03-20T11:30:33.035Z,62.85
2023-03-20T11:31:33.098Z,61.91
2023-03-20T11:32:33.014Z,61.80
2023-03-20T11:33:32.960Z,61.80
2023-03-20T11:34:32.945Z,61.07
2023-03-20T11:35:32.930Z,61.44
2023-03-20T11:36:32.896Z,61.85
2023-03-20T11:37:32.861Z,61.11
2023-03-20T11:38:32.852Z,61.37
2023-03-20T11:39:32.809Z,61.60
2023-03-20T11:40:32.797Z,64.63
2023-03-20T11:41:32.777Z,64.90
2023-03-20T11:42:32.736Z,61.00
2023-03-20T11:43:32.713Z,59.10
2023-03-20T11:44:32.686Z,60.05
2023-03-20T11:45:32.709Z,63.92
2023-03-20T11:46:32.637Z,59.41
2023-03-20T11:47:32.613Z,59.41
2023-03-20T11:48:32.670Z,60.30
2023-03-20T11:49:32.561Z,61.18
2023-03-20T11:50:32.536Z,59.38
2023-03-20T11:51:32.513Z,61.38
2023-03-20T11:52:32.492Z,59.07
2023-03-20T11:53:32.480Z,58.15
2023-03-20T11:54:32.445Z,59.81
2023-03-20T11:55:32.414Z,59.00
2023-03-20T11:56:32.393Z,60.28
2023-03-20T11:57:32.382Z,61.22
2023-03-20T11:58:32.342Z,62.35
2023-03-20T11:59:32.318Z,63.13
2023-03-20T12:00:32.301Z,60.38
2023-03-20T12:01:32.268Z,62.62
2023-03-20T12:02:32.359Z,60.89
2023-03-20T12:03:32.272Z,60.07
2023-03-20T12:04:32.219Z,61.09
2023-03-20T12:05:32.184Z,61.83
2023-03-20T12:06:32.148Z,63.37
2023-03-20T12:07:32.121Z,62.65
2023-03-20T12:08:32.100Z,61.22
2023-03-20T12:09:32.074Z,61.43
2023-03-20T12:10:32.046Z,62.93
2023-03-20T12:11:32.024Z,63.92
2023-03-20T12:12:32.017Z,62.93
2023-03-20T12:13:31.973Z,61.73
2023-03-20T12:14:31.948Z,61.43
2023-03-20T12:15:31.927Z,61.60
2023-03-20T12:16:31.898Z,61.71
2023-03-20T12:17:31.873Z,61.71
2023-03-20T12:18:31.849Z,64.63
2023-03-20T12:19:31.829Z,61.85
2023-03-20T12:20:31.841Z,59.58
2023-03-20T12:21:31.780Z,57.24
2023-03-20T12:22:31.747Z,57.17
2023-03-20T12:23:31.724Z,57.90
2023-03-20T12:24:31.698Z,57.37
2023-03-20T12:25:31.674Z,58.97
2023-03-20T12:26:31.650Z,56.63
2023-03-20T12:27:34.573Z,57.54
2023-03-20T12:28:31.607Z,58.67
2023-03-20T12:29:31.597Z,61.11
2023-03-20T12:30:31.551Z,59.32
2023-03-20T12:31:31.558Z,55.99
2023-03-20T12:32:31.501Z,57.92
2023-03-20T12:33:31.479Z,55.00
2023-03-20T12:34:31.449Z,56.02
2023-03-20T12:35:31.471Z,57.06
2023-03-20T12:36:31.443Z,56.32
2023-03-20T12:37:31.382Z,54.31
2023-03-20T12:38:31.352Z,56.24
2023-03-20T12:39:31.333Z,57.31
2023-03-20T12:40:31.303Z,55.81
2023-03-20T12:41:31.279Z,55.51
2023-03-20T12:42:31.255Z,56.63
2023-03-20T12:43:31.244Z,53.55
2023-03-20T12:44:31.206Z,55.35
2023-03-20T12:45:31.183Z,54.51
2023-03-20T12:46:31.193Z,55.15
2023-03-20T12:47:31.133Z,56.47
2023-03-20T12:48:31.116Z,55.20
2023-03-20T12:49:31.092Z,54.11
2023-03-20T12:50:31.063Z,56.83
2023-03-20T12:51:31.041Z,55.94
2023-03-20T12:52:31.032Z,57.44